DAAGDAUH

Guest
Details From DAAG - Alger Houari Boumediene
To DAUH - Oued Irara
Flight Number -
Tags Generated
Created
Modified
Stats Distance 337 nm / 625 km
Max Altitude 0 ft / 0 m
Waypoints 3
Social Downloads 0
Likes 0
Share VATSIM

Download

Looking for another format? Having issues loading an existing format? Contact us
Advertisement - Login to hide

Notes

Generated

Route

DAAG HME DAUH

ID Type Via Altitude Latitude Longitude Leg Dist Tot Dist Heading (true) Name
O DAAG APT - 0 ft / 0 m 36.69213˚ 3.17083˚ - 0 nm - -
HME VOR - 0 ft / 0 m 31.66433˚ 6.13618˚ 335 nm 335 nm 153° / 155° HASSI MESSAOUD VOR-DME
O DAUH APT - 0 ft / 0 m 31.68650˚ 6.14163˚ 1 nm 337 nm 12° / 12° -

Altitude Profile

Advertisement - Login to hide

Weather


0- 5 10 15 20 25 30 35+ Temperature / ° C

Clouds and Precipitation
Forecast for 2018-05-27 06:00 UTC. Updated 36 minutes ago

Ground ~20,000 ft ~40,000 ft Winds

DAAG

Details ICAO DAAG (ALG)
Name Alger Houari Boumediene
Region Algeria
Timezone Africa/Algiers (UTC+1.0)
Stats Elevation 82 ft / 25 m (AMSL)
Location 36.697521° 3.213079°
Runways 2
Magnetic Variation 1.103° E

METAR

DAAG 270530Z VRB01KT 5000 BKN008 SCT200 18/17 Q1012

Decode

TAF

TAF TAF DAAG 262300Z 2700/2724 VRB02KT 9999 SCT020 BKN200 BECMG 2707/2710 28010KT TEMPO 2710/2718 28020G30KT 5000 -TSRA FEW023CB BECMG 2716/2719 VRB02KT

Decode

Departure Runways

ID Width Length Bearing (true) Bearing (mag) Surface Threshold Offset Overrun Length
05 197 ft / 60 m 11,459 ft / 3,493 m 52.87° 51.77° Asphalt 0 ft / 0 m 0 ft / 0 m
09 148 ft / 45 m 11,442 ft / 3,487 m 91.75° 90.65° Asphalt 0 ft / 0 m 1,017 ft / 310 m
23 197 ft / 60 m 11,459 ft / 3,493 m 232.89° 231.79° Asphalt 0 ft / 0 m 0 ft / 0 m
27 148 ft / 45 m 11,442 ft / 3,487 m 271.78° 270.68° Asphalt 0 ft / 0 m 0 ft / 0 m

DAUH

Details ICAO DAUH (HME)
Name OUED IRARA
Region Algeria
Timezone Africa/Algiers (UTC+1.0)
Stats Elevation 463 ft / 141 m (AMSL)
Location 31.672900° 6.140458°
Runways 1
Magnetic Variation 1.460° E

METAR

DAUH 270530Z 01011KT 4000 HZ SCT040 28/09 Q1015

Decode

TAF

TAF DAUH 262300Z 2700/2724 32020KT 3000 DRSA FEW040 BECMG 2704/2707 10014KT 6000 NSW PROB40 TEMPO 2711/2718 12024KT 3000 DRSA

Decode

Destination Runways

ID Width Length Bearing (true) Bearing (mag) Surface Threshold Offset Overrun Length
18 148 ft / 45 m 9,952 ft / 3,034 m 184.21° 182.75° Asphalt 0 ft / 0 m 328 ft / 100 m
36 148 ft / 45 m 9,952 ft / 3,034 m 4.20° 2.74° Asphalt 0 ft / 0 m 328 ft / 100 m

Popular Alternatives